createdAt,value
2022-10-05T00:00:50.100Z,14.30
2022-10-05T00:03:41.251Z,17.30
2022-10-05T00:06:30.431Z,14.73
2022-10-05T00:09:18.245Z,16.27
2022-10-05T00:12:20.757Z,19.53
2022-10-05T00:15:11.824Z,16.27
2022-10-05T00:17:57.564Z,13.73
2022-10-05T00:20:43.639Z,12.27
2022-10-05T00:23:32.809Z,13.23
2022-10-05T00:26:22.245Z,12.73
2022-10-05T00:29:17.474Z,11.00
2022-10-05T00:32:03.530Z,11.40
2022-10-05T00:34:49.342Z,13.77
2022-10-05T00:37:35.594Z,14.30
2022-10-05T00:40:21.376Z,12.60
2022-10-05T00:43:07.314Z,12.23
2022-10-05T00:45:56.837Z,14.20
2022-10-05T00:49:03.325Z,11.80
2022-10-05T00:51:55.865Z,17.37
2022-10-05T00:54:47.263Z,15.97
2022-10-05T00:57:45.691Z,14.40
2022-10-05T01:00:33.625Z,13.70
2022-10-05T01:03:21.863Z,15.80
2022-10-05T01:06:17.165Z,17.73
2022-10-05T01:09:18.696Z,13.73
2022-10-05T01:12:09.224Z,15.10
2022-10-05T01:14:58.257Z,15.67
2022-10-05T01:17:50.310Z,15.57
2022-10-05T01:20:54.781Z,12.67
2022-10-05T01:23:41.134Z,11.73
2022-10-05T01:26:36.660Z,16.87
2022-10-05T01:29:25.699Z,12.70
2022-10-05T01:32:11.852Z,19.67
2022-10-05T01:35:08.334Z,16.10
2022-10-05T01:37:54.425Z,14.80
2022-10-05T01:40:45.386Z,13.60
2022-10-05T01:43:47.641Z,11.80
2022-10-05T01:46:39.143Z,12.50
2022-10-05T01:49:34.330Z,13.63
2022-10-05T01:52:45.120Z,11.73
2022-10-05T01:55:36.830Z,10.07
2022-10-05T01:58:33.772Z,13.33
2022-10-05T02:01:28.943Z,12.10
2022-10-05T02:04:37.264Z,14.40
2022-10-05T02:07:28.188Z,14.23
2022-10-05T02:10:23.556Z,14.63
2022-10-05T02:13:18.805Z,12.97
2022-10-05T02:16:09.404Z,15.10
2022-10-05T02:18:59.215Z,12.53
2022-10-05T02:21:47.313Z,12.60
2022-10-05T02:24:40.240Z,15.83
2022-10-05T02:27:28.902Z,12.53
2022-10-05T02:30:17.214Z,11.60
2022-10-05T02:33:07.364Z,12.03
2022-10-05T02:35:53.092Z,12.53
2022-10-05T02:38:54.080Z,11.40
2022-10-05T02:42:05.876Z,12.53
2022-10-05T02:44:51.480Z,10.00
2022-10-05T02:48:00.607Z,11.23
2022-10-05T02:50:54.106Z,13.80
2022-10-05T02:53:51.999Z,14.10
2022-10-05T02:56:42.220Z,13.30
2022-10-05T02:59:49.578Z,13.27
2022-10-05T03:02:36.832Z,13.30
2022-10-05T03:05:24.871Z,16.50
2022-10-05T03:08:17.113Z,13.73
2022-10-05T03:11:09.412Z,13.93
2022-10-05T03:14:14.061Z,12.80
2022-10-05T03:17:19.062Z,18.70
2022-10-05T03:20:18.224Z,13.17
2022-10-05T03:23:05.652Z,13.63
2022-10-05T03:26:12.888Z,13.53
2022-10-05T03:29:02.310Z,16.93
2022-10-05T03:31:51.316Z,14.80
2022-10-05T03:34:37.635Z,11.60
2022-10-05T03:37:28.032Z,16.87
2022-10-05T03:40:30.050Z,11.57
2022-10-05T03:43:32.859Z,13.87
2022-10-05T03:46:45.923Z,12.90
2022-10-05T03:49:50.828Z,14.90
2022-10-05T03:52:39.459Z,13.43
2022-10-05T03:55:41.166Z,17.40
2022-10-05T03:58:36.538Z,10.70
2022-10-05T04:01:26.204Z,27.33
2022-10-05T04:04:14.475Z,21.40
2022-10-05T04:07:00.718Z,20.10
2022-10-05T04:09:50.457Z,20.20
2022-10-05T04:12:44.549Z,22.80
2022-10-05T04:15:33.145Z,27.33
2022-10-05T04:18:26.244Z,24.67
2022-10-05T04:21:22.716Z,29.93
2022-10-05T04:24:18.883Z,26.77
2022-10-05T04:27:28.851Z,37.90
2022-10-05T04:30:22.202Z,32.37
2022-10-05T04:33:15.974Z,31.17
2022-10-05T04:36:09.474Z,37.73
2022-10-05T04:39:01.535Z,37.10
2022-10-05T04:42:09.285Z,34.50
2022-10-05T04:45:02.866Z,35.90
2022-10-05T04:48:03.422Z,39.60
2022-10-05T04:50:49.586Z,36.80
2022-10-05T04:53:53.714Z,37.93
2022-10-05T04:56:45.038Z,33.60
2022-10-05T04:59:50.129Z,42.03
2022-10-05T05:02:47.993Z,34.87
2022-10-05T05:06:05.355Z,37.87
2022-10-05T05:09:12.924Z,35.60
2022-10-05T05:12:00.548Z,35.70
2022-10-05T05:14:49.964Z,38.13
2022-10-05T05:17:35.709Z,39.57
2022-10-05T05:20:38.167Z,35.87
2022-10-05T05:23:36.026Z,43.77
2022-10-05T05:26:25.597Z,29.60
2022-10-05T05:29:20.385Z,32.77
2022-10-05T05:32:05.801Z,38.70
2022-10-05T05:35:00.768Z,30.30
2022-10-05T05:37:46.684Z,28.73
2022-10-05T05:40:43.826Z,31.83
2022-10-05T05:43:29.623Z,30.10
2022-10-05T05:46:34.017Z,32.00
2022-10-05T05:49:47.988Z,30.47
2022-10-05T05:52:43.622Z,30.67
2022-10-05T05:55:36.293Z,28.90
2022-10-05T05:58:39.179Z,34.53
2022-10-05T06:01:44.194Z,31.00
2022-10-05T06:04:37.331Z,31.57
2022-10-05T06:07:30.373Z,28.17
2022-10-05T06:10:27.206Z,35.43
2022-10-05T06:13:50.340Z,28.37
2022-10-05T06:17:02.607Z,25.63
2022-10-05T06:19:49.317Z,25.73
2022-10-05T06:22:41.323Z,33.17
2022-10-05T06:25:37.298Z,28.13
2022-10-05T06:28:25.178Z,30.70
2022-10-05T06:31:24.714Z,33.30
2022-10-05T06:34:17.992Z,33.77
2022-10-05T06:37:07.604Z,36.23
2022-10-05T06:40:01.367Z,36.60
2022-10-05T06:43:04.533Z,42.60
2022-10-05T06:45:56.448Z,34.70
2022-10-05T06:49:14.599Z,39.27
2022-10-05T06:52:38.093Z,32.90
2022-10-05T06:55:31.135Z,33.63
2022-10-05T06:58:16.724Z,31.70
2022-10-05T07:01:10.844Z,33.07
2022-10-05T07:04:17.534Z,35.00
2022-10-05T07:07:09.247Z,39.37
2022-10-05T07:09:55.309Z,33.27
2022-10-05T07:12:50.825Z,33.63
2022-10-05T07:15:56.548Z,30.00
2022-10-05T07:18:46.999Z,30.13
2022-10-05T07:21:54.586Z,25.67
2022-10-05T07:24:47.229Z,32.80
2022-10-05T07:27:35.218Z,24.93
2022-10-05T07:30:21.382Z,30.60
2022-10-05T07:33:12.790Z,30.23
2022-10-05T07:36:47.177Z,29.60
2022-10-05T07:39:59.805Z,26.23
2022-10-05T07:43:00.392Z,29.63
2022-10-05T07:45:51.889Z,27.80
2022-10-05T07:48:53.313Z,27.20
2022-10-05T07:51:46.055Z,30.00
2022-10-05T07:54:42.705Z,29.77
2022-10-05T07:57:34.797Z,34.50
2022-10-05T08:00:21.719Z,27.40
2022-10-05T08:03:12.090Z,26.93
2022-10-05T08:05:59.206Z,29.10
2022-10-05T08:08:57.385Z,26.57
2022-10-05T08:11:49.543Z,29.03
2022-10-05T08:14:48.170Z,28.57
2022-10-05T08:17:46.003Z,30.10
2022-10-05T08:20:43.029Z,28.53
2022-10-05T08:23:38.508Z,29.40
2022-10-05T08:26:47.604Z,29.10
2022-10-05T08:29:38.673Z,34.60
2022-10-05T08:32:26.306Z,37.43
2022-10-05T08:35:18.144Z,35.13
2022-10-05T08:38:06.371Z,38.23
2022-10-05T08:41:09.664Z,37.30
2022-10-05T08:44:10.457Z,38.20
2022-10-05T08:46:56.425Z,41.70
2022-10-05T08:49:57.540Z,34.97
2022-10-05T08:53:02.273Z,33.93
2022-10-05T08:55:47.653Z,34.50
2022-10-05T08:58:48.978Z,40.20
2022-10-05T09:01:40.556Z,33.43
2022-10-05T09:04:49.249Z,37.03
2022-10-05T09:07:55.571Z,39.80
2022-10-05T09:10:41.347Z,36.70
2022-10-05T09:13:27.155Z,40.80
2022-10-05T09:16:31.953Z,43.47
2022-10-05T09:19:40.845Z,39.83
2022-10-05T09:22:45.653Z,40.50
2022-10-05T09:25:42.349Z,40.00
2022-10-05T09:28:43.304Z,41.73
2022-10-05T09:31:44.181Z,39.83
2022-10-05T09:34:30.494Z,36.93
2022-10-05T09:37:20.045Z,34.03
2022-10-05T09:40:05.564Z,32.33
2022-10-05T09:43:10.448Z,29.53
2022-10-05T09:45:59.493Z,30.50
2022-10-05T09:48:57.137Z,27.43
2022-10-05T09:52:01.794Z,32.10
2022-10-05T09:55:08.141Z,28.30
2022-10-05T09:58:02.887Z,29.83
2022-10-05T10:01:03.814Z,27.77
2022-10-05T10:04:01.727Z,28.37
2022-10-05T10:06:51.185Z,29.57
2022-10-05T10:09:45.559Z,27.13
2022-10-05T10:12:37.224Z,27.30
2022-10-05T10:15:48.211Z,29.67
2022-10-05T10:18:37.095Z,25.23
2022-10-05T10:21:23.067Z,24.93
2022-10-05T10:24:27.944Z,24.97
2022-10-05T10:27:13.490Z,25.60
2022-10-05T10:30:07.852Z,26.53
2022-10-05T10:33:11.170Z,25.27
2022-10-05T10:36:02.975Z,24.50
2022-10-05T10:38:59.985Z,24.50
2022-10-05T10:42:04.466Z,22.30
2022-10-05T10:45:01.930Z,25.13
2022-10-05T10:47:51.737Z,25.60
2022-10-05T10:50:45.111Z,27.03
2022-10-05T10:53:30.826Z,24.10
2022-10-05T10:56:30.233Z,30.37
2022-10-05T10:59:43.408Z,29.23
2022-10-05T11:02:48.192Z,27.77
2022-10-05T11:05:39.202Z,23.67
2022-10-05T11:08:37.192Z,26.90
2022-10-05T11:11:41.583Z,22.17
2022-10-05T11:14:39.067Z,20.50
2022-10-05T11:17:33.273Z,18.60
2022-10-05T11:20:28.563Z,16.10
2022-10-05T11:23:35.328Z,14.70
2022-10-05T11:26:32.447Z,11.47
2022-10-05T11:29:19.323Z,11.40
2022-10-05T11:32:31.205Z,9.07
2022-10-05T11:35:16.821Z,8.90
2022-10-05T11:38:02.604Z,8.93
2022-10-05T11:41:08.495Z,8.30
2022-10-05T11:44:21.238Z,9.23
2022-10-05T11:47:16.989Z,8.07
2022-10-05T11:50:18.358Z,8.10
2022-10-05T11:53:14.588Z,7.93
2022-10-05T11:56:00.102Z,8.50
2022-10-05T11:59:02.333Z,6.77
2022-10-05T12:02:07.919Z,6.80
2022-10-05T12:05:04.367Z,8.00
2022-10-05T12:07:54.493Z,8.20
2022-10-05T12:10:49.326Z,7.90
2022-10-05T12:13:47.294Z,8.13
2022-10-05T12:16:39.567Z,7.17
2022-10-05T12:19:30.070Z,7.20
2022-10-05T12:22:20.322Z,7.30
2022-10-05T12:25:15.276Z,6.60
2022-10-05T12:28:07.013Z,6.83
2022-10-05T12:31:12.011Z,8.40
2022-10-05T12:34:03.336Z,6.60
2022-10-05T12:37:05.208Z,7.40
2022-10-05T12:39:56.444Z,7.70
2022-10-05T12:42:50.264Z,7.07
2022-10-05T12:45:55.123Z,8.93
2022-10-05T12:48:43.939Z,6.80
2022-10-05T12:51:35.437Z,6.43
2022-10-05T12:54:38.269Z,7.43
2022-10-05T12:57:27.124Z,6.57
2022-10-05T13:00:18.944Z,8.20
2022-10-05T13:03:18.559Z,7.03
2022-10-05T13:06:15.885Z,6.57
2022-10-05T13:09:10.426Z,6.07
2022-10-05T13:11:58.420Z,7.13
2022-10-05T13:15:00.423Z,6.83
2022-10-05T13:17:58.764Z,6.33
2022-10-05T13:20:46.788Z,6.33
2022-10-05T13:23:37.094Z,6.87
2022-10-05T13:26:25.388Z,6.93
2022-10-05T13:29:22.041Z,6.07
2022-10-05T13:32:15.147Z,6.87
2022-10-05T13:35:21.794Z,5.50
2022-10-05T13:38:19.682Z,6.33
2022-10-05T13:41:24.438Z,5.97
2022-10-05T13:44:16.006Z,5.87
2022-10-05T13:47:35.167Z,5.70
2022-10-05T13:50:34.452Z,6.37
2022-10-05T13:53:24.042Z,7.40
2022-10-05T13:56:42.518Z,7.43
2022-10-05T13:59:33.654Z,5.60
2022-10-05T14:02:27.348Z,7.43
2022-10-05T14:05:27.393Z,6.50
2022-10-05T14:08:17.431Z,6.40
2022-10-05T14:11:21.312Z,6.93
2022-10-05T14:14:10.230Z,5.63
2022-10-05T14:17:00.400Z,5.37
2022-10-05T14:19:48.361Z,5.63
2022-10-05T14:22:41.324Z,9.93
2022-10-05T14:25:27.797Z,7.20
2022-10-05T14:28:13.370Z,6.63
2022-10-05T14:31:16.444Z,6.93
2022-10-05T14:34:21.309Z,7.30
2022-10-05T14:37:20.139Z,6.70
2022-10-05T14:40:22.442Z,6.90
2022-10-05T14:43:14.517Z,7.53
2022-10-05T14:46:14.867Z,6.17
2022-10-05T14:49:21.107Z,6.80
2022-10-05T14:52:28.712Z,7.90
2022-10-05T14:55:17.639Z,6.63
2022-10-05T14:58:08.273Z,7.23
2022-10-05T15:01:02.568Z,7.60
2022-10-05T15:03:48.276Z,7.27
2022-10-05T15:06:39.261Z,7.33
2022-10-05T15:09:34.127Z,6.57
2022-10-05T15:12:25.494Z,7.00
2022-10-05T15:15:28.022Z,8.40
2022-10-05T15:18:32.142Z,7.03
2022-10-05T15:21:23.666Z,6.60
2022-10-05T15:24:20.698Z,7.67
2022-10-05T15:27:13.213Z,6.73
2022-10-05T15:30:09.580Z,7.03
2022-10-05T15:33:13.593Z,6.60
2022-10-05T15:36:19.689Z,6.13
2022-10-05T15:39:38.892Z,6.97
2022-10-05T15:42:32.963Z,9.03
2022-10-05T15:45:32.469Z,6.67
2022-10-05T15:48:20.973Z,7.07
2022-10-05T15:51:15.282Z,6.47
2022-10-05T15:54:32.616Z,6.63
2022-10-05T15:57:40.753Z,6.90
2022-10-05T16:00:27.522Z,5.70
2022-10-05T16:03:23.324Z,6.07
2022-10-05T16:06:36.883Z,5.77
2022-10-05T16:09:28.605Z,7.03
2022-10-05T16:12:33.017Z,6.70
2022-10-05T16:15:26.325Z,7.57
2022-10-05T16:18:20.817Z,8.37
2022-10-05T16:21:09.491Z,8.70
2022-10-05T16:24:09.145Z,6.10
2022-10-05T16:26:59.979Z,7.83
2022-10-05T16:29:59.884Z,11.00
2022-10-05T16:32:52.005Z,11.10
2022-10-05T16:35:53.766Z,7.73
2022-10-05T16:38:50.227Z,10.30
2022-10-05T16:41:55.206Z,9.60
2022-10-05T16:44:49.219Z,7.57
2022-10-05T16:47:39.883Z,8.60
2022-10-05T16:50:46.762Z,8.90
2022-10-05T16:53:37.283Z,10.27
2022-10-05T16:56:25.186Z,11.90
2022-10-05T16:59:11.190Z,8.33
2022-10-05T17:02:00.583Z,9.10
2022-10-05T17:04:54.225Z,12.97
2022-10-05T17:07:52.955Z,10.17
2022-10-05T17:10:42.427Z,8.20
2022-10-05T17:13:31.352Z,15.23
2022-10-05T17:16:35.755Z,13.40
2022-10-05T17:19:26.255Z,12.60
2022-10-05T17:22:13.458Z,13.60
2022-10-05T17:25:10.907Z,11.13
2022-10-05T17:27:58.145Z,13.00
2022-10-05T17:30:59.399Z,11.03
2022-10-05T17:34:01.455Z,11.90
2022-10-05T17:36:57.571Z,9.97
2022-10-05T17:39:48.256Z,11.70
2022-10-05T17:42:37.004Z,9.07
2022-10-05T17:45:32.376Z,9.90
2022-10-05T17:48:36.411Z,9.97
2022-10-05T17:51:47.500Z,14.13
2022-10-05T17:55:11.777Z,14.20
2022-10-05T17:57:59.600Z,12.80
2022-10-05T18:00:58.735Z,12.20
2022-10-05T18:03:50.224Z,10.30
2022-10-05T18:06:37.598Z,11.30
2022-10-05T18:09:24.194Z,17.63
2022-10-05T18:12:19.251Z,9.77
2022-10-05T18:15:08.072Z,12.30
2022-10-05T18:17:57.064Z,11.50
2022-10-05T18:21:02.926Z,11.47
2022-10-05T18:23:56.797Z,12.10
2022-10-05T18:26:43.549Z,10.83
2022-10-05T18:29:50.611Z,10.50
2022-10-05T18:33:03.416Z,9.13
2022-10-05T18:35:52.897Z,9.60
2022-10-05T18:38:42.074Z,8.30
2022-10-05T18:41:37.050Z,6.70
2022-10-05T18:44:44.452Z,8.40
2022-10-05T18:47:55.426Z,7.00
2022-10-05T18:50:50.845Z,5.97
2022-10-05T18:53:37.037Z,6.20
2022-10-05T18:56:28.394Z,6.27
2022-10-05T18:59:17.931Z,7.97
2022-10-05T19:02:11.435Z,6.80
2022-10-05T19:04:57.562Z,5.80
2022-10-05T19:07:43.360Z,6.00
2022-10-05T19:10:37.962Z,5.23
2022-10-05T19:13:42.469Z,5.57
2022-10-05T19:16:46.769Z,4.87
2022-10-05T19:19:51.458Z,8.07
2022-10-05T19:22:43.051Z,6.10
2022-10-05T19:25:29.801Z,4.67
2022-10-05T19:28:27.279Z,7.00
2022-10-05T19:31:13.070Z,6.40
2022-10-05T19:34:05.028Z,9.47
2022-10-05T19:37:26.511Z,5.90
2022-10-05T19:40:28.687Z,5.80
2022-10-05T19:43:40.705Z,5.83
2022-10-05T19:46:27.517Z,6.63
2022-10-05T19:49:13.108Z,5.73
2022-10-05T19:51:59.047Z,5.93
2022-10-05T19:54:45.333Z,6.00
2022-10-05T19:57:32.035Z,11.73
2022-10-05T20:00:37.992Z,7.60
2022-10-05T20:03:27.433Z,5.20
2022-10-05T20:06:13.205Z,5.53
2022-10-05T20:09:04.136Z,5.97
2022-10-05T20:11:54.040Z,6.20
2022-10-05T20:14:59.825Z,6.67
2022-10-05T20:18:06.180Z,8.10
2022-10-05T20:20:51.993Z,4.90
2022-10-05T20:23:38.087Z,6.77
2022-10-05T20:26:58.406Z,5.73
2022-10-05T20:29:45.184Z,5.77
2022-10-05T20:32:31.968Z,5.13
2022-10-05T20:35:18.741Z,7.00
2022-10-05T20:38:04.286Z,5.70
2022-10-05T20:40:50.694Z,5.77
2022-10-05T20:43:38.904Z,6.10
2022-10-05T20:46:24.458Z,8.13
2022-10-05T20:49:11.402Z,5.40
2022-10-05T20:51:57.549Z,5.50
2022-10-05T20:54:43.485Z,6.83
2022-10-05T20:57:29.403Z,5.20
2022-10-05T21:00:16.807Z,5.40
2022-10-05T21:03:02.707Z,5.10
2022-10-05T21:05:48.242Z,4.93
2022-10-05T21:08:36.150Z,6.73
2022-10-05T21:11:22.193Z,5.77
2022-10-05T21:14:08.409Z,5.27
2022-10-05T21:16:53.977Z,7.30
2022-10-05T21:19:40.236Z,5.47
2022-10-05T21:22:25.810Z,7.53
2022-10-05T21:25:11.756Z,5.87
2022-10-05T21:27:57.604Z,4.97
2022-10-05T21:30:43.276Z,5.80
2022-10-05T21:33:29.850Z,5.23
2022-10-05T21:36:17.191Z,5.67
2022-10-05T21:39:03.404Z,6.07
2022-10-05T21:41:49.870Z,4.87
2022-10-05T21:44:35.701Z,5.30
2022-10-05T21:47:21.435Z,6.67
2022-10-05T21:50:08.495Z,5.37
2022-10-05T21:52:55.146Z,8.43
2022-10-05T21:55:42.057Z,5.97
2022-10-05T21:58:28.790Z,6.13
2022-10-05T22:01:16.868Z,5.40
2022-10-05T22:04:06.858Z,6.10
2022-10-05T22:06:52.935Z,14.77
2022-10-05T22:09:38.835Z,5.40
2022-10-05T22:12:26.304Z,5.30
2022-10-05T22:15:11.732Z,5.30
2022-10-05T22:17:58.328Z,5.70
2022-10-05T22:20:44.989Z,5.20
2022-10-05T22:23:31.049Z,7.83
2022-10-05T22:26:18.835Z,6.17
2022-10-05T22:29:04.523Z,6.73
2022-10-05T22:31:50.751Z,6.43
2022-10-05T22:34:36.978Z,5.60
2022-10-05T22:37:22.767Z,9.40
2022-10-05T22:40:10.136Z,5.43
2022-10-05T22:42:56.567Z,5.20
2022-10-05T22:45:42.764Z,6.93
2022-10-05T22:48:28.951Z,9.20
2022-10-05T22:51:16.057Z,6.10
2022-10-05T22:54:02.688Z,9.03
2022-10-05T22:56:48.393Z,7.30
2022-10-05T22:59:34.246Z,8.07
2022-10-05T23:02:20.746Z,9.67
2022-10-05T23:05:07.455Z,7.33
2022-10-05T23:07:53.405Z,5.77
2022-10-05T23:10:40.243Z,5.53
2022-10-05T23:13:26.089Z,7.20
2022-10-05T23:16:14.503Z,6.73
2022-10-05T23:19:00.892Z,6.20
2022-10-05T23:21:46.462Z,6.77
2022-10-05T23:24:32.634Z,6.43
2022-10-05T23:27:18.318Z,5.90
2022-10-05T23:30:04.978Z,8.67
2022-10-05T23:32:50.720Z,5.60
2022-10-05T23:35:37.074Z,6.27
2022-10-05T23:38:23.272Z,6.57
2022-10-05T23:41:09.933Z,9.63
2022-10-05T23:43:55.792Z,6.40
2022-10-05T23:46:41.376Z,5.60
2022-10-05T23:49:27.427Z,6.43
2022-10-05T23:52:13.563Z,8.70
2022-10-05T23:54:59.676Z,5.93
2022-10-05T23:57:45.401Z,5.77
